Time;durP1;ratioP1;P1;durP2;ratioP2;P2;SDS_P1;SDS_P2;PMS_P1;PMS_P2;Temp;Humidity;BMP_temperature;BMP_pressure;BME280_temperature;BME280_humidity;BME280_pressure;Samples;Min_cycle;Max_cycle;Signal;HPM_P1;HPM_P2
2022/11/17 00:00:15;;;;;;;1999.90;999.90;;;15.00;99.90;;;;;;5092466;28;20044;-79
2022/11/17 00:02:41;;;;;;;1999.90;660.60;;;15.10;99.90;;;;;;5090011;28;20044;-79
2022/11/17 00:05:07;;;;;;;1999.90;999.90;;;15.00;99.90;;;;;;5091554;28;20048;-78
2022/11/17 00:07:33;;;;;;;1999.90;999.90;;;15.00;99.90;;;;;;5091896;28;20093;-78
2022/11/17 00:09:58;;;;;;;1999.90;999.90;;;14.90;99.90;;;;;;5091287;28;20400;-79
2022/11/17 00:15:08;;;;;;;1999.90;999.90;;;14.90;99.90;;;;;;5091270;28;20063;-83
2022/11/17 00:17:34;;;;;;;1999.90;999.90;;;15.00;99.90;;;;;;5107349;28;20060;-77
2022/11/17 00:22:44;;;;;;;1999.90;999.90;;;15.70;99.90;;;;;;5090883;28;20090;-79
2022/11/17 00:25:09;;;;;;;1999.90;999.90;;;15.50;99.90;;;;;;5091580;28;20377;-79
2022/11/17 00:27:35;;;;;;;1999.90;999.90;;;14.90;99.90;;;;;;5091391;28;20089;-78
2022/11/17 00:30:01;;;;;;;1999.90;999.90;;;14.90;99.90;;;;;;5090658;28;20059;-79
2022/11/17 00:35:11;;;;;;;1999.90;999.90;;;14.90;99.90;;;;;;5091649;28;20055;-78
2022/11/17 00:38:14;;;;;;;1999.90;999.90;;;14.90;99.90;;;;;;5090251;28;20039;-78
2022/11/17 00:40:24;;;;;;;1999.90;999.90;;;14.90;99.90;;;;;;5090893;28;20503;-78
2022/11/17 00:42:50;;;;;;;1999.90;999.90;;;14.90;99.90;;;;;;5090138;28;20048;-78
2022/11/17 00:45:15;;;;;;;1999.90;999.90;;;14.90;99.90;;;;;;5092060;28;20051;-79
2022/11/17 00:47:42;;;;;;;1999.90;999.90;;;14.90;99.90;;;;;;5094642;28;20051;-79
2022/11/17 00:50:08;;;;;;;1999.90;999.90;;;15.40;99.90;;;;;;5094143;28;20052;-78
2022/11/17 00:52:34;;;;;;;1999.90;999.90;;;15.00;99.90;;;;;;5094593;28;20517;-78
2022/11/17 00:55:00;;;;;;;1999.90;999.90;;;14.90;99.90;;;;;;5092932;28;20091;-78
2022/11/17 00:57:25;;;;;;;1999.90;999.90;;;14.90;99.90;;;;;;5110246;28;20048;-78
2022/11/17 00:59:51;;;;;;;1999.90;999.90;;;14.90;99.90;;;;;;5093264;28;20083;-78
2022/11/17 01:02:17;;;;;;;1999.90;999.90;;;15.00;99.90;;;;;;5094769;28;20050;-79
2022/11/17 01:04:42;;;;;;;1999.90;999.90;;;15.00;99.90;;;;;;5093499;28;20059;-78
2022/11/17 01:07:08;;;;;;;1999.90;999.90;;;14.90;99.90;;;;;;5093103;28;20082;-79
2022/11/17 01:09:34;;;;;;;1999.90;999.90;;;14.90;99.90;;;;;;5094399;28;20093;-78
2022/11/17 01:11:59;;;;;;;1999.90;999.90;;;14.90;99.90;;;;;;5094370;28;20055;-79
2022/11/17 01:14:28;;;;;;;1999.90;999.90;;;14.90;99.90;;;;;;5095011;28;20535;-77
2022/11/17 01:16:54;;;;;;;1999.90;999.90;;;14.90;99.90;;;;;;5093009;28;20460;-78
2022/11/17 01:19:22;;;;;;;1999.90;999.90;;;14.80;99.90;;;;;;5093727;28;20048;-79
2022/11/17 01:21:47;;;;;;;1999.90;999.90;;;14.90;99.90;;;;;;5094957;28;20142;-85
2022/11/17 01:24:16;;;;;;;1999.90;999.90;;;14.90;99.90;;;;;;5092763;28;20499;-79
2022/11/17 01:26:43;;;;;;;1999.90;999.90;;;15.20;99.90;;;;;;5094311;28;20048;-79
2022/11/17 01:29:11;;;;;;;1999.90;999.90;;;14.90;99.90;;;;;;5091959;28;20131;-79
2022/11/17 01:31:40;;;;;;;1999.90;999.90;;;14.90;99.90;;;;;;5093224;28;20040;-79
2022/11/17 01:34:06;;;;;;;1999.90;999.90;;;14.90;99.90;;;;;;5092961;28;20465;-79
2022/11/17 01:37:17;;;;;;;1999.90;999.90;;;15.20;99.90;;;;;;5092460;28;20048;-79
2022/11/17 01:39:20;;;;;;;1999.90;999.90;;;14.90;99.90;;;;;;5093357;28;20060;-79
2022/11/17 01:41:46;;;;;;;1999.90;999.90;;;14.90;99.90;;;;;;5094074;28;20087;-79
2022/11/17 01:44:40;;;;;;;1999.90;999.90;;;15.40;99.90;;;;;;5091756;28;20083;-79
2022/11/17 01:47:28;;;;;;;1999.90;999.90;;;14.90;99.90;;;;;;5093675;28;20093;-79
2022/11/17 01:50:00;;;;;;;1999.90;999.90;;;14.90;99.90;;;;;;5090633;28;20089;-79
2022/11/17 01:52:28;;;;;;;1999.90;999.90;;;15.00;99.90;;;;;;5092692;28;20048;-82
2022/11/17 01:54:55;;;;;;;1999.90;999.90;;;14.90;99.90;;;;;;5092869;28;20132;-80
2022/11/17 01:57:27;;;;;;;1999.90;999.90;;;14.90;99.90;;;;;;5092626;28;20127;-78
2022/11/17 02:00:00;;;;;;;1999.90;999.90;;;14.90;99.90;;;;;;5092013;28;20052;-79
2022/11/17 02:02:26;;;;;;;1999.90;999.90;;;;;;;;;;5092460;28;20043;-78
2022/11/17 02:05:14;;;;;;;1999.90;999.90;;;14.90;99.90;;;;;;5092708;28;20582;-85
2022/11/17 02:07:41;;;;;;;1999.90;999.90;;;15.00;99.90;;;;;;5093354;28;20040;-80
2022/11/17 02:10:07;;;;;;;1999.90;999.90;;;15.00;99.90;;;;;;5091846;28;20043;-80
2022/11/17 02:12:35;;;;;;;1999.90;999.90;;;14.90;99.90;;;;;;5093749;28;20109;-78
2022/11/17 02:15:01;;;;;;;1999.90;999.90;;;14.80;99.90;;;;;;5091597;28;20043;-79
2022/11/17 02:17:40;;;;;;;1999.90;999.90;;;14.90;99.90;;;;;;5093506;28;20093;-77
2022/11/17 02:20:15;;;;;;;1999.90;999.90;;;15.50;99.90;;;;;;5091804;28;20507;-79
2022/11/17 02:23:00;;;;;;;1999.90;999.90;;;14.90;99.90;;;;;;5092308;28;20044;-79
2022/11/17 02:25:50;;;;;;;1308.40;524.65;;;14.80;99.90;;;;;;5093203;28;20384;-78
2022/11/17 02:28:16;;;;;;;1999.90;999.90;;;14.80;99.90;;;;;;5092935;28;20128;-79
2022/11/17 02:30:45;;;;;;;1999.90;999.90;;;14.70;99.90;;;;;;5091917;28;20131;-80
2022/11/17 02:33:34;;;;;;;1999.90;999.90;;;14.70;99.90;;;;;;5093038;28;20059;-80
2022/11/17 02:36:22;;;;;;;1999.90;999.90;;;14.70;99.90;;;;;;5091073;28;20455;-80
2022/11/17 02:39:10;;;;;;;1999.90;999.90;;;14.70;99.90;;;;;;5092706;28;20050;-79
2022/11/17 02:41:54;;;;;;;1999.90;999.90;;;14.60;99.90;;;;;;5092130;28;20048;-82
2022/11/17 02:44:45;;;;;;;1999.90;999.90;;;14.70;99.90;;;;;;5074737;28;20090;-86
2022/11/17 02:47:27;;;;;;;1999.90;999.90;;;14.70;99.90;;;;;;5092566;28;20085;-84
2022/11/17 02:49:59;;;;;;;1999.90;999.90;;;14.20;99.90;;;;;;5090693;28;20485;-84
2022/11/17 02:52:31;;;;;;;1999.90;999.90;;;14.40;99.90;;;;;;5093106;28;20055;-83
2022/11/17 02:55:15;;;;;;;1999.90;999.90;;;14.20;99.90;;;;;;5092565;28;20290;-87
2022/11/17 02:57:40;;;;;;;1643.55;757.80;;;14.30;99.90;;;;;;5091408;28;20128;-86
2022/11/17 03:00:15;;;;;;;1999.90;999.90;;;14.70;99.90;;;;;;5107902;28;20132;-87
2022/11/17 03:03:19;;;;;;;1999.90;999.90;;;14.40;99.90;;;;;;5092465;28;20496;-85
2022/11/17 03:05:56;;;;;;;1999.90;279.88;;;14.80;99.90;;;;;;5090566;28;20043;-83
2022/11/17 03:08:37;;;;;;;1999.90;999.90;;;14.10;99.90;;;;;;5090953;28;20430;-81
2022/11/17 03:11:05;;;;;;;1965.65;449.65;;;14.40;99.90;;;;;;5092195;28;20048;-81
2022/11/17 03:14:16;;;;;;;1999.90;999.90;;;15.20;99.90;;;;;;5074438;28;20539;-79
2022/11/17 03:17:11;;;;;;;;;;;14.50;99.90;;;;;;5076302;28;20056;-80
2022/11/17 03:19:43;;;;;;;1999.90;999.90;;;14.80;99.90;;;;;;5078090;28;20275;-82
2022/11/17 03:22:27;;;;;;;1617.25;766.85;;;14.30;99.90;;;;;;5092509;28;20052;-79
2022/11/17 03:24:56;;;;;;;1999.90;999.90;;;14.80;99.90;;;;;;5091052;28;20150;-78
2022/11/17 03:27:34;;;;;;;1392.10;395.63;;;15.20;99.90;;;;;;5091687;28;20036;-78
2022/11/17 03:30:04;;;;;;;1999.90;999.90;;;14.20;99.90;;;;;;5092326;28;20055;-78
2022/11/17 03:32:35;;;;;;;1554.53;220.13;;;14.20;99.90;;;;;;5091373;28;20052;-77
2022/11/17 03:35:08;;;;;;;1707.05;620.20;;;14.20;99.90;;;;;;5073895;28;20549;-78
2022/11/17 03:37:38;;;;;;;1634.15;429.30;;;14.30;99.90;;;;;;5092307;28;20101;-78
2022/11/17 03:40:08;;;;;;;1999.90;999.90;;;14.30;99.90;;;;;;5091575;28;20062;-78
2022/11/17 03:42:37;;;;;;;1974.18;626.03;;;14.20;99.90;;;;;;5092792;28;20051;-81
2022/11/17 03:45:15;;;;;;;1999.90;999.90;;;14.20;99.90;;;;;;5091925;28;20040;-79
2022/11/17 03:47:42;;;;;;;1934.37;399.83;;;14.70;99.90;;;;;;5092287;28;20055;-89
2022/11/17 03:50:29;;;;;;;1999.90;999.90;;;14.10;99.90;;;;;;5090896;28;20048;-85
2022/11/17 03:52:55;;;;;;;1999.90;999.90;;;14.40;99.90;;;;;;5090339;28;20055;-85
2022/11/17 03:55:23;;;;;;;1686.35;769.50;;;14.50;99.90;;;;;;5106489;28;20051;-84
2022/11/17 03:58:11;;;;;;;1999.90;999.90;;;14.40;99.90;;;;;;5090700;28;20051;-82
2022/11/17 04:00:39;;;;;;;1999.90;999.90;;;14.80;99.90;;;;;;5091836;28;20373;-85
2022/11/17 04:03:05;;;;;;;1999.90;999.90;;;14.90;99.90;;;;;;5092452;28;20533;-84
2022/11/17 04:05:31;;;;;;;1999.90;999.90;;;14.40;99.90;;;;;;5089907;28;20036;-84
2022/11/17 04:07:56;;;;;;;1999.90;999.90;;;14.50;99.90;;;;;;5090233;28;20114;-83
2022/11/17 04:10:24;;;;;;;1999.90;999.90;;;14.60;99.90;;;;;;5091371;28;20381;-85
2022/11/17 04:18:20;;;;;;;1819.90;621.53;;;14.60;99.90;;;;;;5091011;28;20078;-84
2022/11/17 04:20:50;;;;;;;1836.38;448.75;;;14.80;99.90;;;;;;5093659;28;20496;-85
2022/11/17 04:23:16;;;;;;;1420.80;560.78;;;15.00;99.90;;;;;;5077220;28;20153;-85
2022/11/17 04:28:36;;;;;;;1675.10;767.00;;;14.70;99.90;;;;;;5111173;28;20048;-88
2022/11/17 04:31:18;;;;;;;1897.03;778.65;;;13.80;99.90;;;;;;5076957;28;20047;-91
2022/11/17 04:33:47;;;;;;;1613.85;229.80;;;14.90;99.90;;;;;;5094047;28;20507;-88
2022/11/17 04:36:16;;;;;;;1725.00;608.88;;;14.30;99.90;;;;;;5093142;28;20102;-89
2022/11/17 04:38:45;;;;;;;498.55;79.55;;;16.10;99.90;;;;;;5076551;28;20078;-89
2022/11/17 04:44:00;;;;;;;1999.90;999.90;;;13.90;99.90;;;;;;5111282;28;20088;-88
2022/11/17 04:46:28;;;;;;;1999.90;999.90;;;15.10;99.90;;;;;;5076988;28;20048;-88
2022/11/17 04:48:58;;;;;;;1999.90;999.90;;;14.90;99.90;;;;;;5093713;28;20051;-90
2022/11/17 04:51:25;;;;;;;1247.25;348.20;;;14.30;99.90;;;;;;5094950;28;20114;-90
2022/11/17 04:53:55;;;;;;;1875.53;254.68;;;14.60;99.90;;;;;;5076828;28;20164;-90
2022/11/17 04:56:26;;;;;;;1574.53;241.82;;;14.60;99.90;;;;;;5092561;28;20055;-90
2022/11/17 04:58:53;;;;;;;1999.90;999.90;;;14.80;99.90;;;;;;5093693;28;20044;-91
2022/11/17 05:01:19;;;;;;;1928.72;291.75;;;14.60;99.90;;;;;;5093365;28;20044;-88
2022/11/17 05:03:53;;;;;;;1766.18;262.77;;;14.70;99.90;;;;;;5109518;28;20044;-89
2022/11/17 05:06:38;;;;;;;1174.93;148.25;;;15.00;99.90;;;;;;5075265;28;20504;-88
2022/11/17 05:09:23;;;;;;;1999.90;999.90;;;14.50;99.90;;;;;;5092620;28;20048;-90
2022/11/17 05:14:49;;;;;;;1999.90;999.90;;;14.60;99.90;;;;;;5109885;28;20481;-90
2022/11/17 05:17:17;;;;;;;1666.57;436.55;;;;;;;;;;5093584;28;20043;-90
2022/11/17 05:19:47;;;;;;;1883.28;458.17;;;15.20;99.90;;;;;;5092020;28;20087;-90
2022/11/17 05:25:00;;;;;;;1370.60;545.03;;;14.30;99.90;;;;;;5110433;28;20055;-89
2022/11/17 05:27:26;;;;;;;1999.90;999.90;;;14.50;99.90;;;;;;5093513;28;20036;-89
2022/11/17 05:29:52;;;;;;;1523.78;566.85;;;15.60;99.90;;;;;;5093450;28;20036;-89
2022/11/17 05:32:18;;;;;;;1781.90;265.65;;;13.90;99.90;;;;;;5093482;28;20075;-78
2022/11/17 05:34:44;;;;;;;1999.90;325.73;;;14.00;99.90;;;;;;5092604;28;20044;-79
2022/11/17 05:37:09;;;;;;;1999.90;490.45;;;14.00;99.90;;;;;;5094052;28;20490;-84
2022/11/17 05:39:35;;;;;;;1999.90;999.90;;;14.60;99.90;;;;;;5092952;28;20036;-82
2022/11/17 05:42:01;;;;;;;1741.97;219.88;;;14.50;99.90;;;;;;5092492;28;20517;-78
2022/11/17 05:44:26;;;;;;;1127.45;324.08;;;14.40;99.90;;;;;;5092254;28;20040;-77
2022/11/17 05:46:52;;;;;;;1999.90;239.95;;;13.90;99.90;;;;;;5076127;28;20051;-76
2022/11/17 05:49:18;;;;;;;1816.30;271.58;;;14.60;99.90;;;;;;5093856;28;20051;-78
2022/11/17 05:51:43;;;;;;;1654.10;575.20;;;14.70;99.90;;;;;;5093318;28;20044;-82
2022/11/17 05:54:09;;;;;;;1949.05;266.65;;;13.80;99.90;;;;;;5093105;28;20062;-82
2022/11/17 05:56:41;;;;;;;1918.95;242.32;;;13.90;99.90;;;;;;5092273;28;20051;-80
2022/11/17 05:59:17;;;;;;;1953.70;816.40;;;13.80;99.90;;;;;;5092514;28;20044;-80
2022/11/17 06:01:49;;;;;;;1999.90;999.90;;;13.80;99.90;;;;;;5092871;28;20128;-79
2022/11/17 06:04:18;;;;;;;1988.88;644.35;;;14.10;99.90;;;;;;5094158;28;20472;-81
2022/11/17 06:06:45;;;;;;;1805.10;613.75;;;14.60;99.90;;;;;;5092391;28;20131;-81
2022/11/17 06:09:11;;;;;;;1999.90;447.38;;;13.80;99.90;;;;;;5093368;28;20097;-84
2022/11/17 06:11:37;;;;;;;1702.18;598.17;;;;;;;;;;5092726;28;20043;-82
2022/11/17 06:14:02;;;;;;;1965.80;270.98;;;14.40;99.90;;;;;;5092055;28;20139;-78
2022/11/17 06:16:33;;;;;;;1263.63;534.75;;;14.00;99.90;;;;;;5093013;28;20130;-80
2022/11/17 06:19:04;;;;;;;1645.90;768.63;;;13.80;99.90;;;;;;5091947;28;20562;-81
2022/11/17 06:21:30;;;;;;;1999.90;999.90;;;;;;;;;;5090484;28;20499;-79
2022/11/17 06:23:56;;;;;;;1999.90;999.90;;;14.00;99.90;;;;;;5093113;28;20443;-82
2022/11/17 06:26:26;;;;;;;1666.85;278.05;;;;;;;;;;5091686;28;20059;-86
2022/11/17 06:28:52;;;;;;;1999.90;999.90;;;14.30;99.90;;;;;;5092021;28;20051;-79
2022/11/17 06:31:18;;;;;;;1775.40;627.78;;;;;;;;;;5091754;28;20487;-86
2022/11/17 06:33:44;;;;;;;1594.70;611.63;;;14.20;99.90;;;;;;5089937;28;20043;-83
2022/11/17 06:36:10;;;;;;;1526.30;596.00;;;13.80;99.90;;;;;;5074000;28;20186;-83
2022/11/17 06:38:36;;;;;;;1999.90;999.90;;;;;;;;;;5092932;28;20119;-83
2022/11/17 06:41:03;;;;;;;1999.90;999.90;;;13.70;99.90;;;;;;5091375;28;20044;-82
2022/11/17 06:43:30;;;;;;;1538.10;557.28;;;14.00;99.90;;;;;;5091674;28;20137;-81
2022/11/17 06:46:00;;;;;;;1604.40;423.95;;;13.60;99.90;;;;;;5108760;28;20397;-83
2022/11/17 06:48:26;;;;;;;1710.93;566.72;;;13.90;99.90;;;;;;5108265;28;20043;-84
2022/11/17 06:50:53;;;;;;;1883.57;809.95;;;14.00;99.90;;;;;;5090545;28;20044;-81
2022/11/17 06:53:19;;;;;;;1646.22;764.08;;;14.10;99.90;;;;;;5092263;28;20094;-81
2022/11/17 06:56:05;;;;;;;1999.90;999.90;;;13.90;99.90;;;;;;5092326;28;20563;-81
2022/11/17 06:58:32;;;;;;;1189.82;222.15;;;13.70;99.90;;;;;;5092737;28;20062;-83
2022/11/17 07:01:09;;;;;;;1999.90;999.90;;;13.70;99.90;;;;;;5092705;28;20059;-82
2022/11/17 07:03:36;;;;;;;1454.93;565.50;;;13.90;99.90;;;;;;5092587;28;20050;-80
2022/11/17 07:06:04;;;;;;;1563.63;292.73;;;14.30;99.90;;;;;;5091386;28;20071;-81
2022/11/17 07:08:30;;;;;;;1999.90;999.90;;;14.00;99.90;;;;;;5093031;28;20127;-91
2022/11/17 07:11:17;;;;;;;1355.13;553.80;;;13.80;99.90;;;;;;5092475;28;20109;-82
2022/11/17 07:13:42;;;;;;;1543.05;593.83;;;14.10;99.90;;;;;;5091110;28;20098;-80
2022/11/17 07:16:13;;;;;;;1999.90;999.90;;;15.40;99.90;;;;;;5092840;28;20472;-81
2022/11/17 07:18:40;;;;;;;1657.28;772.38;;;14.20;99.90;;;;;;5092590;28;20083;-81
2022/11/17 07:21:09;;;;;;;1329.97;420.10;;;14.10;99.90;;;;;;5091818;28;20097;-82
2022/11/17 07:23:35;;;;;;;1999.90;999.90;;;13.80;99.90;;;;;;5091749;28;20492;-83
2022/11/17 07:26:02;;;;;;;1999.90;999.90;;;14.30;99.90;;;;;;5092336;28;20101;-80
2022/11/17 07:28:28;;;;;;;1449.05;273.73;;;14.30;99.90;;;;;;5090576;28;20043;-84
2022/11/17 07:30:54;;;;;;;1106.03;237.40;;;13.80;99.90;;;;;;5091775;28;20048;-80
2022/11/17 07:33:21;;;;;;;1662.57;534.22;;;14.20;99.90;;;;;;5091567;28;20394;-80
2022/11/17 07:35:47;;;;;;;1999.90;999.90;;;13.70;99.90;;;;;;5090102;28;20389;-80
2022/11/17 07:38:13;;;;;;;1661.10;776.03;;;13.70;99.90;;;;;;5091346;28;20044;-83
2022/11/17 07:40:39;;;;;;;1692.97;457.23;;;14.20;99.90;;;;;;5092047;28;20510;-82
2022/11/17 07:43:05;;;;;;;1046.43;208.68;;;14.00;99.90;;;;;;5092216;28;20051;-81
2022/11/17 07:45:31;;;;;;;1687.68;636.10;;;14.40;99.90;;;;;;5092127;28;20136;-82
2022/11/17 07:48:02;;;;;;;1999.90;999.90;;;13.70;99.90;;;;;;5089919;28;20090;-80
2022/11/17 07:50:28;;;;;;;1999.90;999.90;;;14.20;99.90;;;;;;5091684;28;20036;-80
2022/11/17 07:52:56;;;;;;;1999.90;999.90;;;14.20;99.90;;;;;;5092119;28;20048;-81
2022/11/17 07:55:22;;;;;;;1154.65;525.00;;;13.90;99.90;;;;;;5091442;28;20058;-79
2022/11/17 07:57:56;;;;;;;1999.90;491.88;;;13.70;99.90;;;;;;5096799;28;20056;-78
2022/11/17 08:00:22;;;;;;;1185.35;159.13;;;15.00;99.90;;;;;;5096357;28;20043;-80
2022/11/17 08:02:48;;;;;;;1100.80;348.25;;;13.60;99.90;;;;;;5096319;28;20385;-80
2022/11/17 08:05:16;;;;;;;1812.97;635.60;;;;;;;;;;5092015;28;20502;-81
2022/11/17 08:07:43;;;;;;;1501.93;585.80;;;13.90;99.90;;;;;;5112071;28;20115;-79
2022/11/17 08:10:08;;;;;;;1654.20;774.13;;;14.40;99.90;;;;;;5095501;28;20514;-78
2022/11/17 08:12:34;;;;;;;1908.55;655.05;;;14.10;99.90;;;;;;5095175;28;20126;-78
2022/11/17 08:15:00;;;;;;;1969.13;678.05;;;14.20;99.90;;;;;;5096203;28;20044;-80
2022/11/17 08:17:26;;;;;;;1999.90;999.90;;;14.50;99.90;;;;;;5094640;28;20395;-79
2022/11/17 08:19:52;;;;;;;1461.70;442.75;;;13.60;99.90;;;;;;5095212;28;20266;-80
2022/11/17 08:22:17;;;;;;;1644.85;774.10;;;13.90;99.90;;;;;;5095912;28;20117;-82
2022/11/17 08:24:43;;;;;;;1999.90;999.90;;;13.90;99.90;;;;;;5095515;28;20051;-81
2022/11/17 08:27:09;;;;;;;1999.90;999.90;;;14.10;99.90;;;;;;5095182;28;20052;-80
2022/11/17 08:29:34;;;;;;;1761.55;770.30;;;14.10;99.90;;;;;;5094683;28;20492;-82
2022/11/17 08:32:00;;;;;;;1917.43;247.88;;;14.30;99.90;;;;;;5111158;28;20044;-81
2022/11/17 08:34:26;;;;;;;1999.90;999.90;;;13.80;99.90;;;;;;5091432;28;20048;-82
2022/11/17 08:36:51;;;;;;;1999.90;999.90;;;14.20;99.90;;;;;;5093756;28;20109;-82
2022/11/17 08:39:17;;;;;;;1999.90;999.90;;;16.20;99.90;;;;;;5094270;28;20105;-84
2022/11/17 08:41:43;;;;;;;1132.78;523.95;;;13.50;99.90;;;;;;5093758;28;20047;-83
2022/11/17 08:44:08;;;;;;;1767.30;477.88;;;13.80;99.90;;;;;;5111494;28;20492;-85
2022/11/17 08:46:34;;;;;;;1999.90;999.90;;;14.10;99.90;;;;;;5094765;28;20040;-85
2022/11/17 08:49:00;;;;;;;1356.00;394.83;;;14.20;99.90;;;;;;5095070;28;20040;-85
2022/11/17 08:51:28;;;;;;;1794.82;804.72;;;14.20;99.90;;;;;;5095153;28;20052;-89
2022/11/17 08:53:54;;;;;;;1682.40;249.75;;;;;;;;;;5094838;28;20388;-82
2022/11/17 08:56:20;;;;;;;1999.90;999.90;;;14.30;99.90;;;;;;5093810;28;20136;-86
2022/11/17 08:58:46;;;;;;;1999.90;999.90;;;13.10;99.90;;;;;;5091742;28;20476;-85
2022/11/17 09:01:14;;;;;;;1999.90;999.90;;;16.00;99.90;;;;;;5094222;28;20074;-87
2022/11/17 09:03:43;;;;;;;1080.93;176.68;;;14.00;99.90;;;;;;5095547;28;20438;-83
2022/11/17 09:06:10;;;;;;;1215.15;367.25;;;14.40;99.90;;;;;;5094813;28;20121;-87
2022/11/17 09:08:39;;;;;;;1536.13;600.50;;;13.90;99.90;;;;;;5094261;28;20137;-87
2022/11/17 09:11:06;;;;;;;1999.90;999.90;;;14.30;99.90;;;;;;5095109;28;20044;-86
2022/11/17 09:13:32;;;;;;;1616.18;612.60;;;14.20;99.90;;;;;;5095078;28;20052;-87
2022/11/17 09:16:08;;;;;;;1999.90;999.90;;;13.70;99.90;;;;;;5110975;28;20052;-85
2022/11/17 09:18:36;;;;;;;1443.82;394.52;;;14.20;99.90;;;;;;5094150;28;20403;-83
2022/11/17 09:21:07;;;;;;;1329.93;552.50;;;14.40;99.90;;;;;;5094430;28;20044;-84
2022/11/17 09:23:33;;;;;;;1571.60;609.67;;;14.80;99.90;;;;;;5094034;28;20051;-85
2022/11/17 09:26:07;;;;;;;1581.03;602.28;;;14.50;99.90;;;;;;5093714;28;20056;-83
2022/11/17 09:28:33;;;;;;;1305.18;546.95;;;13.90;99.90;;;;;;5093702;28;20059;-83
2022/11/17 09:31:04;;;;;;;1775.72;790.30;;;13.90;99.90;;;;;;5076813;28;20048;-83
2022/11/17 09:33:30;;;;;;;1999.90;999.90;;;;;;;;;;5095052;28;20055;-83
2022/11/17 09:35:56;;;;;;;1751.93;787.38;;;14.50;99.90;;;;;;5094179;28;20046;-84
2022/11/17 09:38:22;;;;;;;1999.90;999.90;;;14.40;99.90;;;;;;5094861;28;20044;-83
2022/11/17 09:40:48;;;;;;;1999.90;999.90;;;14.30;99.90;;;;;;5093382;28;20201;-83
2022/11/17 09:43:27;;;;;;;1669.32;613.05;;;14.40;99.90;;;;;;5094484;28;20044;-83
2022/11/17 09:46:04;;;;;;;1673.40;601.90;;;14.40;99.90;;;;;;5093082;28;20044;-82
2022/11/17 09:48:42;;;;;;;1630.05;604.78;;;14.70;99.90;;;;;;5076750;28;20131;-83
2022/11/17 09:51:12;;;;;;;1999.90;999.90;;;14.60;99.90;;;;;;5094191;28;20450;-83
2022/11/17 09:53:49;;;;;;;1999.90;999.90;;;14.60;99.90;;;;;;5094676;28;20078;-82
2022/11/17 09:56:16;;;;;;;1999.90;999.90;;;14.00;99.90;;;;;;5093859;28;20067;-82
2022/11/17 09:58:47;;;;;;;1101.45;350.05;;;14.60;99.90;;;;;;5093071;28;20101;-83
2022/11/17 10:01:19;;;;;;;1999.90;999.90;;;14.00;99.90;;;;;;5093426;28;20055;-84
2022/11/17 10:03:47;;;;;;;1999.90;999.90;;;14.50;99.90;;;;;;5094580;28;20062;-84
2022/11/17 10:06:20;;;;;;;1999.90;999.90;;;14.70;99.90;;;;;;5092635;28;20052;-84
2022/11/17 10:08:48;;;;;;;1999.90;999.90;;;14.60;99.90;;;;;;5093072;28;20036;-84
2022/11/17 10:11:31;;;;;;;1999.90;999.90;;;14.50;99.90;;;;;;5094123;28;20044;-85
2022/11/17 10:14:18;;;;;;;1999.90;999.90;;;14.80;99.90;;;;;;5094027;28;20526;-83
2022/11/17 10:16:57;;;;;;;1089.43;348.90;;;14.10;99.90;;;;;;5093763;28;20097;-85
2022/11/17 10:19:28;;;;;;;1658.75;774.58;;;14.20;99.90;;;;;;5093247;28;20142;-85
2022/11/17 10:22:05;;;;;;;1999.90;999.90;;;12.30;99.90;;;;;;5092381;28;20061;-83
2022/11/17 10:24:43;;;;;;;721.10;124.38;;;14.20;99.90;;;;;;5093884;28;20476;-87
2022/11/17 10:27:20;;;;;;;1459.13;585.70;;;14.40;99.90;;;;;;5093359;28;20130;-83
2022/11/17 10:30:01;;;;;;;1391.72;565.83;;;14.50;99.90;;;;;;5092538;28;20044;-83
2022/11/17 10:32:29;;;;;;;1999.90;999.90;;;14.20;99.90;;;;;;5093924;28;20043;-84
2022/11/17 10:34:55;;;;;;;965.65;170.95;;;;;;;;;;5092021;28;20036;-84
2022/11/17 10:37:29;;;;;;;1308.07;174.75;;;14.60;99.90;;;;;;5093193;28;20496;-82
2022/11/17 10:40:25;;;;;;;1999.90;999.90;;;14.70;99.90;;;;;;5093447;28;20127;-84
2022/11/17 10:43:13;;;;;;;1999.90;999.90;;;14.90;99.90;;;;;;5085120;28;20140;-83
2022/11/17 10:45:51;;;;;;;812.83;142.75;;;14.40;99.90;;;;;;5093525;28;20189;-84
2022/11/17 10:48:26;;;;;;;1991.93;217.27;;;14.90;99.90;;;;;;5093001;28;20051;-83
2022/11/17 10:50:55;;;;;;;922.25;320.17;;;14.20;99.90;;;;;;5093058;28;20048;-83
2022/11/17 10:53:37;;;;;;;1999.90;999.90;;;14.90;99.90;;;;;;5093752;28;20093;-82
2022/11/17 10:56:14;;;;;;;1999.90;597.95;;;14.90;99.90;;;;;;5091618;28;20129;-85
2022/11/17 10:59:03;;;;;;;1999.90;999.90;;;14.20;99.90;;;;;;5093092;28;20077;-85
2022/11/17 11:01:35;;;;;;;502.27;67.60;;;14.20;99.90;;;;;;5093345;28;20052;-86
2022/11/17 11:04:02;;;;;;;1690.40;771.38;;;14.20;99.90;;;;;;5091954;28;20097;-87
2022/11/17 11:06:31;;;;;;;701.28;88.85;;;15.00;99.90;;;;;;5092784;28;20085;-87
2022/11/17 11:08:56;;;;;;;941.25;142.45;;;15.00;99.90;;;;;;5092346;28;20043;-89
2022/11/17 11:11:40;;;;;;;1011.47;176.38;;;14.60;99.90;;;;;;5091960;28;20052;-90
2022/11/17 11:14:37;;;;;;;1999.90;999.90;;;14.40;99.90;;;;;;5091995;28;20380;-89
2022/11/17 11:17:15;;;;;;;1682.68;781.60;;;17.10;99.90;;;;;;5072409;28;20067;-89
2022/11/17 11:19:46;;;;;;;1716.57;788.33;;;14.50;99.90;;;;;;5091335;28;20056;-88
2022/11/17 11:22:45;;;;;;;1999.90;999.90;;;13.80;99.90;;;;;;5091306;28;20507;-90
2022/11/17 11:25:29;;;;;;;1594.55;604.38;;;14.00;99.90;;;;;;5108674;28;20101;-89
2022/11/17 11:28:21;;;;;;;1346.05;547.17;;;14.40;99.90;;;;;;5091967;28;20450;-91
2022/11/17 11:31:15;;;;;;;1693.03;783.80;;;14.90;99.90;;;;;;5091450;28;20050;-89
2022/11/17 11:34:01;;;;;;;1015.85;335.55;;;15.00;99.90;;;;;;5091704;28;20047;-90
2022/11/17 11:36:43;;;;;;;1999.90;999.90;;;14.70;99.90;;;;;;5092685;28;20048;-89
2022/11/17 11:39:32;;;;;;;1463.30;595.25;;;14.60;99.90;;;;;;5090905;28;20052;-88
2022/11/17 11:42:25;;;;;;;484.30;69.53;;;14.20;99.90;;;;;;5091318;28;20052;-88
2022/11/17 11:45:09;;;;;;;633.08;110.97;;;14.70;99.90;;;;;;5091432;28;20430;-87
2022/11/17 11:47:48;;;;;;;1607.93;238.70;;;14.80;99.90;;;;;;5091448;28;20132;-88
2022/11/17 11:50:14;;;;;;;1551.18;594.17;;;;;;;;;;5091798;28;20048;-87
2022/11/17 11:52:48;;;;;;;1857.00;810.03;;;14.70;99.90;;;;;;5091764;28;20056;-86
2022/11/17 11:55:25;;;;;;;1999.90;999.90;;;14.90;99.90;;;;;;5090856;28;20048;-89
2022/11/17 11:58:22;;;;;;;1999.90;999.90;;;14.30;99.90;;;;;;5092495;28;20118;-87
2022/11/17 12:01:04;;;;;;;1363.78;562.58;;;14.60;99.90;;;;;;5057039;28;20052;-85
2022/11/17 12:04:09;;;;;;;1756.53;773.50;;;14.70;99.90;;;;;;5074687;28;20040;-86
2022/11/17 12:07:12;;;;;;;875.38;148.13;;;15.10;99.90;;;;;;5036169;28;20102;-87
2022/11/17 12:09:44;;;;;;;1657.07;775.97;;;15.30;99.90;;;;;;5058105;28;20055;-88
2022/11/17 12:12:35;;;;;;;1600.28;766.78;;;14.40;99.90;;;;;;5073812;28;20048;-87
2022/11/17 12:15:19;;;;;;;1458.38;581.10;;;14.50;99.90;;;;;;5063236;28;20048;-87
2022/11/17 12:17:51;;;;;;;1999.90;999.90;;;14.80;99.90;;;;;;5074445;28;20101;-86
2022/11/17 12:20:35;;;;;;;1999.90;999.90;;;15.00;99.90;;;;;;5084025;28;20048;-87
2022/11/17 12:23:35;;;;;;;897.72;153.73;;;14.90;99.90;;;;;;5074087;28;20056;-87
2022/11/17 12:26:01;;;;;;;1999.90;999.90;;;15.30;99.90;;;;;;5091230;28;20122;-89
2022/11/17 12:28:36;;;;;;;1999.90;999.90;;;15.60;99.90;;;;;;5074078;28;20040;-87
2022/11/17 12:31:10;;;;;;;1529.35;528.70;;;15.70;99.90;;;;;;5090433;28;20119;-87
2022/11/17 12:33:50;;;;;;;1999.90;999.90;;;15.00;99.90;;;;;;5074465;28;20044;-88
2022/11/17 12:36:22;;;;;;;1725.93;768.03;;;14.80;99.90;;;;;;5090460;28;20040;-87
2022/11/17 12:38:55;;;;;;;744.13;137.73;;;14.70;99.90;;;;;;5074153;28;20048;-86
2022/11/17 12:41:45;;;;;;;983.92;344.55;;;13.50;99.90;;;;;;5074974;28;20381;-88
2022/11/17 12:44:36;;;;;;;1765.45;763.72;;;14.90;99.90;;;;;;5077778;28;20340;-87
2022/11/17 12:47:21;;;;;;;1999.90;999.90;;;15.00;99.90;;;;;;5094642;28;20461;-87
2022/11/17 12:50:06;;;;;;;1999.90;771.88;;;15.60;99.90;;;;;;5094507;28;20051;-87
2022/11/17 12:52:57;;;;;;;1999.90;999.90;;;15.50;99.90;;;;;;5094560;28;20051;-88